createdAt,value
2022-09-07T00:00:36.479Z,3.20
2022-09-07T00:01:49.130Z,3.00
2022-09-07T00:02:51.000Z,2.97
2022-09-07T00:04:00.907Z,2.80
2022-09-07T00:05:06.991Z,3.27
2022-09-07T00:06:11.297Z,3.07
2022-09-07T00:07:13.077Z,3.60
2022-09-07T00:08:17.411Z,3.90
2022-09-07T00:09:19.324Z,3.43
2022-09-07T00:10:24.674Z,2.83
2022-09-07T00:11:26.496Z,3.67
2022-09-07T00:12:28.350Z,3.27
2022-09-07T00:13:36.052Z,3.80
2022-09-07T00:14:37.790Z,3.80
2022-09-07T00:15:41.624Z,3.63
2022-09-07T00:16:45.878Z,3.43
2022-09-07T00:17:47.599Z,3.70
2022-09-07T00:18:51.010Z,3.50
2022-09-07T00:19:52.808Z,3.80
2022-09-07T00:21:02.664Z,4.23
2022-09-07T00:22:13.003Z,3.30
2022-09-07T00:23:14.829Z,4.20
2022-09-07T00:24:19.378Z,3.87
2022-09-07T00:25:21.107Z,3.63
2022-09-07T00:26:25.500Z,3.97
2022-09-07T00:27:27.341Z,3.60
2022-09-07T00:28:33.284Z,3.90
2022-09-07T00:29:39.501Z,4.10
2022-09-07T00:30:42.865Z,4.50
2022-09-07T00:31:48.015Z,4.77
2022-09-07T00:32:49.850Z,4.33
2022-09-07T00:33:53.358Z,4.60
2022-09-07T00:34:55.182Z,4.80
2022-09-07T00:35:58.818Z,5.37
2022-09-07T00:37:00.900Z,4.57
2022-09-07T00:38:05.931Z,4.97
2022-09-07T00:39:08.006Z,4.53
2022-09-07T00:40:10.059Z,4.50
2022-09-07T00:41:12.630Z,4.50
2022-09-07T00:42:23.524Z,4.00
2022-09-07T00:43:40.432Z,4.30
2022-09-07T00:45:10.135Z,4.33
2022-09-07T00:46:22.692Z,4.63
2022-09-07T00:47:33.401Z,4.33
2022-09-07T00:49:00.377Z,3.83
2022-09-07T00:50:22.081Z,3.87
2022-09-07T00:51:36.793Z,4.40
2022-09-07T00:52:44.157Z,4.30
2022-09-07T00:54:03.559Z,4.10
2022-09-07T00:55:10.003Z,3.80
2022-09-07T00:56:13.197Z,4.00
2022-09-07T00:57:30.757Z,4.00
2022-09-07T00:58:35.956Z,3.80
2022-09-07T00:59:44.807Z,3.90
2022-09-07T01:00:52.008Z,3.60
2022-09-07T01:02:00.598Z,4.23
2022-09-07T01:03:04.722Z,3.90
2022-09-07T01:04:07.838Z,4.33
2022-09-07T01:05:31.802Z,3.93
2022-09-07T01:06:36.344Z,4.30
2022-09-07T01:07:49.647Z,4.47
2022-09-07T01:08:54.836Z,4.70
2022-09-07T01:09:57.915Z,4.20
2022-09-07T01:11:02.935Z,4.60
2022-09-07T01:12:07.880Z,3.60
2022-09-07T01:13:10.034Z,4.67
2022-09-07T01:14:16.462Z,4.30
2022-09-07T01:15:26.936Z,4.20
2022-09-07T01:16:46.244Z,4.70
2022-09-07T01:18:09.177Z,4.43
2022-09-07T01:19:57.706Z,4.33
2022-09-07T01:21:20.199Z,4.00
2022-09-07T01:22:49.667Z,3.90
2022-09-07T01:24:03.216Z,4.00
2022-09-07T01:25:13.880Z,4.20
2022-09-07T01:26:56.922Z,4.20
2022-09-07T01:28:05.364Z,3.90
2022-09-07T01:29:27.488Z,4.10
2022-09-07T01:30:33.446Z,3.80
2022-09-07T01:31:52.347Z,4.23
2022-09-07T01:32:56.753Z,4.37
2022-09-07T01:34:14.274Z,4.33
2022-09-07T01:35:36.817Z,4.87
2022-09-07T01:36:53.383Z,4.17
2022-09-07T01:38:19.731Z,4.23
2022-09-07T01:39:28.643Z,4.97
2022-09-07T01:40:44.073Z,5.93
2022-09-07T01:42:11.674Z,5.63
2022-09-07T01:43:24.976Z,5.10
2022-09-07T01:44:46.703Z,5.50
2022-09-07T01:45:48.942Z,5.23
2022-09-07T01:47:11.679Z,5.30
2022-09-07T01:48:17.508Z,5.00
2022-09-07T01:49:31.618Z,5.93
2022-09-07T01:50:40.312Z,5.07
2022-09-07T01:51:48.825Z,5.60
2022-09-07T01:53:17.218Z,5.30
2022-09-07T01:54:40.262Z,5.07
2022-09-07T01:55:50.654Z,4.90
2022-09-07T01:56:56.484Z,4.53
2022-09-07T01:58:36.297Z,5.27
2022-09-07T01:59:50.827Z,4.93
2022-09-07T02:01:03.097Z,5.10
2022-09-07T02:02:10.020Z,5.30
2022-09-07T02:03:24.925Z,5.73
2022-09-07T02:04:39.867Z,4.93
2022-09-07T02:06:07.677Z,5.43
2022-09-07T02:07:17.979Z,5.30
2022-09-07T02:08:31.085Z,4.40
2022-09-07T02:09:40.605Z,4.70
2022-09-07T02:11:07.411Z,4.97
2022-09-07T02:12:45.694Z,4.70
2022-09-07T02:14:07.566Z,4.47
2022-09-07T02:15:25.902Z,4.77
2022-09-07T02:16:29.919Z,4.83
2022-09-07T02:17:41.930Z,4.90
2022-09-07T02:18:55.862Z,4.50
2022-09-07T02:20:13.558Z,5.03
2022-09-07T02:21:21.409Z,4.80
2022-09-07T02:22:28.277Z,5.23
2022-09-07T02:23:39.320Z,5.00
2022-09-07T02:24:46.595Z,5.40
2022-09-07T02:25:55.119Z,5.00
2022-09-07T02:26:59.332Z,5.17
2022-09-07T02:28:13.637Z,5.00
2022-09-07T02:29:15.752Z,5.10
2022-09-07T02:30:18.180Z,5.00
2022-09-07T02:31:20.415Z,4.87
2022-09-07T02:32:24.288Z,4.50
2022-09-07T02:34:43.186Z,5.70
2022-09-07T02:35:46.031Z,4.87
2022-09-07T02:36:50.246Z,5.33
2022-09-07T02:37:53.247Z,4.97
2022-09-07T02:38:55.017Z,5.20
2022-09-07T02:39:58.020Z,4.60
2022-09-07T02:41:01.731Z,5.03
2022-09-07T02:42:10.969Z,5.97
2022-09-07T02:43:18.926Z,5.40
2022-09-07T02:44:35.625Z,5.57
2022-09-07T02:45:52.392Z,5.70
2022-09-07T02:47:19.891Z,5.43
2022-09-07T02:48:33.499Z,6.37
2022-09-07T02:49:58.958Z,5.80
2022-09-07T02:51:15.990Z,6.30
2022-09-07T02:52:17.671Z,6.60
2022-09-07T02:53:31.743Z,6.77
2022-09-07T02:55:02.334Z,6.33
2022-09-07T02:56:21.986Z,6.70
2022-09-07T02:57:35.139Z,6.63
2022-09-07T02:59:15.665Z,6.00
2022-09-07T03:00:21.328Z,6.17
2022-09-07T03:01:57.184Z,5.60
2022-09-07T03:03:40.800Z,6.13
2022-09-07T03:05:02.079Z,6.07
2022-09-07T03:06:17.427Z,5.70
2022-09-07T03:07:35.872Z,5.90
2022-09-07T03:08:48.245Z,6.63
2022-09-07T03:09:57.028Z,5.27
2022-09-07T03:11:02.434Z,5.90
2022-09-07T03:12:05.551Z,5.77
2022-09-07T03:13:09.450Z,6.03
2022-09-07T03:14:25.067Z,6.00
2022-09-07T03:15:31.206Z,5.90
2022-09-07T03:16:33.775Z,5.57
2022-09-07T03:17:35.449Z,5.80
2022-09-07T03:18:40.532Z,6.10
2022-09-07T03:19:45.382Z,5.10
2022-09-07T03:20:51.990Z,5.90
2022-09-07T03:21:53.968Z,6.43
2022-09-07T03:22:57.480Z,6.53
2022-09-07T03:23:59.240Z,6.63
2022-09-07T03:25:04.991Z,7.30
2022-09-07T03:26:09.241Z,6.63
2022-09-07T03:27:11.824Z,7.40
2022-09-07T03:28:13.489Z,7.90
2022-09-07T03:29:15.663Z,7.47
2022-09-07T03:30:17.537Z,7.33
2022-09-07T03:31:19.727Z,8.00
2022-09-07T03:32:21.530Z,7.07
2022-09-07T03:33:23.204Z,6.93
2022-09-07T03:34:24.953Z,6.73
2022-09-07T03:35:26.811Z,6.90
2022-09-07T03:36:30.103Z,6.67
2022-09-07T03:37:32.205Z,6.50
2022-09-07T03:38:33.925Z,7.20
2022-09-07T03:39:36.814Z,6.80
2022-09-07T03:40:39.007Z,6.40
2022-09-07T03:41:43.191Z,7.53
2022-09-07T03:42:49.280Z,6.90
2022-09-07T03:43:51.242Z,6.80
2022-09-07T03:44:55.641Z,6.27
2022-09-07T03:46:02.879Z,7.20
2022-09-07T03:47:04.764Z,7.00
2022-09-07T03:48:06.453Z,6.40
2022-09-07T03:49:08.155Z,6.80
2022-09-07T03:50:12.831Z,6.30
2022-09-07T03:51:17.036Z,7.10
2022-09-07T03:52:19.114Z,6.00
2022-09-07T04:01:11.303Z,6.00
2022-09-07T04:02:18.712Z,6.40
2022-09-07T04:03:23.265Z,5.87
2022-09-07T04:04:25.061Z,6.87
2022-09-07T04:05:26.966Z,6.33
2022-09-07T04:06:29.618Z,6.40
2022-09-07T04:07:31.225Z,6.37
2022-09-07T04:08:38.607Z,6.73
2022-09-07T04:09:40.432Z,6.00
2022-09-07T04:10:42.186Z,6.60
2022-09-07T04:11:43.914Z,5.93
2022-09-07T04:12:45.551Z,6.10
2022-09-07T04:13:47.314Z,6.40
2022-09-07T04:14:49.212Z,5.40
2022-09-07T04:15:53.906Z,5.73
2022-09-07T04:16:55.887Z,6.17
2022-09-07T04:17:58.023Z,6.07
2022-09-07T04:19:02.680Z,6.40
2022-09-07T04:20:04.775Z,5.97
2022-09-07T04:21:06.626Z,6.37
2022-09-07T04:22:10.381Z,5.80
2022-09-07T04:23:12.561Z,5.67
2022-09-07T04:24:15.519Z,5.63
2022-09-07T04:25:18.125Z,5.83
2022-09-07T04:26:28.534Z,6.70
2022-09-07T04:27:30.286Z,5.70
2022-09-07T04:28:32.132Z,5.40
2022-09-07T04:29:33.899Z,6.40
2022-09-07T04:30:36.134Z,6.27
2022-09-07T04:31:38.224Z,5.40
2022-09-07T04:32:39.825Z,6.00
2022-09-07T04:33:42.721Z,5.40
2022-09-07T04:34:44.395Z,6.10
2022-09-07T04:35:46.043Z,5.40
2022-09-07T04:36:47.689Z,5.87
2022-09-07T04:37:49.320Z,5.37
2022-09-07T04:38:56.175Z,5.90
2022-09-07T04:39:58.437Z,6.00
2022-09-07T04:41:06.695Z,5.73
2022-09-07T04:42:08.441Z,6.03
2022-09-07T04:43:12.979Z,5.20
2022-09-07T04:44:16.905Z,5.43
2022-09-07T04:45:21.588Z,4.90
2022-09-07T04:46:26.538Z,5.10
2022-09-07T04:47:30.887Z,5.10
2022-09-07T04:48:32.927Z,4.93
2022-09-07T04:49:34.928Z,4.90
2022-09-07T04:50:36.679Z,4.63
2022-09-07T04:51:39.769Z,5.03
2022-09-07T04:52:41.519Z,4.50
2022-09-07T04:53:43.749Z,4.70
2022-09-07T04:54:49.740Z,4.87
2022-09-07T04:55:51.346Z,3.80
2022-09-07T04:56:53.130Z,4.20
2022-09-07T04:57:54.768Z,3.97
2022-09-07T04:58:56.747Z,4.20
2022-09-07T04:59:58.359Z,3.90
2022-09-07T05:01:04.945Z,4.50
2022-09-07T05:02:06.794Z,3.80
2022-09-07T05:03:08.479Z,3.73
2022-09-07T05:04:10.226Z,3.50
2022-09-07T05:05:11.837Z,3.57
2022-09-07T05:06:14.675Z,3.63
2022-09-07T05:07:16.285Z,3.60
2022-09-07T05:08:18.169Z,3.50
2022-09-07T05:09:19.849Z,3.10
2022-09-07T05:10:21.464Z,3.00
2022-09-07T05:11:28.761Z,2.83
2022-09-07T05:12:31.257Z,2.70
2022-09-07T05:13:32.981Z,2.93
2022-09-07T05:14:34.909Z,2.50
2022-09-07T05:15:37.028Z,3.00
2022-09-07T05:16:39.256Z,2.77
2022-09-07T05:17:41.459Z,2.43
2022-09-07T05:18:43.916Z,2.90
2022-09-07T05:19:46.166Z,2.53
2022-09-07T05:20:48.324Z,2.93
2022-09-07T05:21:50.589Z,2.70
2022-09-07T05:22:59.758Z,2.53
2022-09-07T05:24:03.091Z,3.47
2022-09-07T05:25:05.447Z,2.30
2022-09-07T05:26:08.338Z,2.90
2022-09-07T05:27:10.587Z,2.60
2022-09-07T05:28:18.595Z,3.17
2022-09-07T05:32:06.118Z,4.57
2022-09-07T05:33:08.374Z,4.20
2022-09-07T05:35:33.273Z,4.60
2022-09-07T05:36:41.891Z,4.23
2022-09-07T05:37:44.037Z,4.40
2022-09-07T05:38:46.502Z,4.10
2022-09-07T05:39:49.925Z,4.40
2022-09-07T05:40:53.327Z,4.07
2022-09-07T05:41:55.635Z,4.40
2022-09-07T05:42:57.793Z,4.27
2022-09-07T05:45:22.079Z,4.60
2022-09-07T05:46:24.437Z,4.20
2022-09-07T05:47:26.910Z,5.17
2022-09-07T05:48:29.586Z,4.30
2022-09-07T05:49:32.580Z,4.80
2022-09-07T05:50:35.834Z,5.10
2022-09-07T05:51:38.199Z,4.70
2022-09-07T05:52:40.164Z,5.30
2022-09-07T05:53:47.772Z,5.00
2022-09-07T05:54:49.991Z,5.50
2022-09-07T05:55:52.157Z,5.60
2022-09-07T05:56:54.225Z,5.67
2022-09-07T05:57:56.260Z,5.50
2022-09-07T05:58:58.416Z,5.37
2022-09-07T06:00:00.581Z,6.67
2022-09-07T06:01:06.462Z,6.00
2022-09-07T06:02:13.158Z,5.90
2022-09-07T06:03:15.316Z,6.80
2022-09-07T06:04:17.612Z,4.77
2022-09-07T06:05:19.762Z,5.40
2022-09-07T06:06:21.816Z,5.90
2022-09-07T06:07:24.079Z,5.60
2022-09-07T06:08:26.669Z,6.77
2022-09-07T06:10:54.516Z,7.10
2022-09-07T06:11:56.458Z,7.13
2022-09-07T06:13:03.713Z,6.43
2022-09-07T06:14:10.025Z,7.57
2022-09-07T06:15:12.281Z,6.60
2022-09-07T06:16:21.227Z,6.70
2022-09-07T06:17:23.168Z,6.47
2022-09-07T06:18:30.471Z,6.40
2022-09-07T06:19:33.391Z,6.83
2022-09-07T06:20:35.534Z,6.50
2022-09-07T06:21:38.712Z,6.30
2022-09-07T06:22:40.793Z,5.80
2022-09-07T06:25:40.004Z,6.63
2022-09-07T06:26:48.070Z,6.00
2022-09-07T06:27:50.253Z,5.50
2022-09-07T06:28:57.192Z,6.27
2022-09-07T06:29:59.804Z,5.77
2022-09-07T06:31:07.583Z,7.97
2022-09-07T06:33:32.049Z,6.97
2022-09-07T06:34:40.161Z,5.43
2022-09-07T06:35:54.303Z,6.60
2022-09-07T06:37:03.187Z,5.90
2022-09-07T06:38:05.158Z,6.70
2022-09-07T06:39:07.107Z,6.07
2022-09-07T06:40:13.532Z,5.90
2022-09-07T06:42:44.617Z,6.23
2022-09-07T06:43:46.850Z,6.00
2022-09-07T06:44:48.833Z,6.23
2022-09-07T06:45:54.637Z,7.30
2022-09-07T06:48:01.934Z,7.40
2022-09-07T06:49:03.981Z,6.50
2022-09-07T06:50:06.265Z,7.10
2022-09-07T06:51:19.260Z,7.20
2022-09-07T06:52:21.493Z,8.03
2022-09-07T06:53:41.699Z,6.43
2022-09-07T06:55:02.025Z,7.77
2022-09-07T06:56:13.573Z,7.40
2022-09-07T06:57:15.612Z,7.73
2022-09-07T06:58:17.703Z,7.20
2022-09-07T06:59:19.845Z,8.07
2022-09-07T07:00:21.977Z,7.20
2022-09-07T07:01:25.133Z,7.57
2022-09-07T07:02:27.266Z,8.20
2022-09-07T07:03:29.351Z,7.53
2022-09-07T07:04:32.411Z,7.37
2022-09-07T07:05:36.187Z,7.10
2022-09-07T07:06:39.048Z,8.47
2022-09-07T07:07:40.973Z,7.90
2022-09-07T07:08:43.138Z,8.27
2022-09-07T07:09:51.124Z,7.83
2022-09-07T07:10:53.605Z,7.30
2022-09-07T07:11:55.562Z,6.70
2022-09-07T07:12:58.368Z,7.03
2022-09-07T07:14:01.097Z,8.00
2022-09-07T07:15:03.041Z,7.20
2022-09-07T07:16:15.889Z,7.93
2022-09-07T07:17:17.815Z,6.60
2022-09-07T07:18:31.032Z,7.80
2022-09-07T07:19:33.100Z,7.10
2022-09-07T07:20:42.263Z,7.23
2022-09-07T07:22:07.993Z,6.60
2022-09-07T07:23:06.675Z,7.77
2022-09-07T07:24:08.934Z,7.27
2022-09-07T07:25:10.987Z,6.87
2022-09-07T07:26:15.297Z,7.17
2022-09-07T07:27:17.678Z,6.40
2022-09-07T07:29:41.551Z,5.63
2022-09-07T07:30:43.503Z,5.73
2022-09-07T07:31:47.268Z,5.10
2022-09-07T07:32:49.355Z,4.90
2022-09-07T07:33:53.228Z,5.30
2022-09-07T07:34:55.182Z,5.00
2022-09-07T07:36:08.750Z,4.83
2022-09-07T07:37:10.581Z,5.70
2022-09-07T07:42:19.007Z,4.57
2022-09-07T07:43:20.942Z,4.20
2022-09-07T07:44:22.907Z,4.60
2022-09-07T07:46:51.405Z,4.30
2022-09-07T07:47:53.548Z,4.43
2022-09-07T07:48:55.534Z,4.00
2022-09-07T07:51:19.701Z,4.37
2022-09-07T07:53:44.503Z,3.97
2022-09-07T07:54:46.623Z,4.33
2022-09-07T07:55:48.891Z,4.50
2022-09-07T07:56:50.985Z,5.00
2022-09-07T07:57:52.820Z,4.30
2022-09-07T07:58:55.145Z,3.70
2022-09-07T07:59:57.404Z,4.23
2022-09-07T08:01:12.253Z,4.20
2022-09-07T08:02:16.433Z,4.10
2022-09-07T08:03:19.044Z,3.70
2022-09-07T08:04:21.187Z,3.93
2022-09-07T08:05:23.185Z,3.60
2022-09-07T08:06:25.118Z,3.40
2022-09-07T08:07:27.042Z,4.50
2022-09-07T08:08:30.671Z,3.83
2022-09-07T08:09:33.001Z,3.70
2022-09-07T08:10:35.980Z,3.60
2022-09-07T08:11:40.238Z,3.40
2022-09-07T08:12:42.347Z,3.40
2022-09-07T08:13:45.529Z,3.53
2022-09-07T08:14:48.526Z,3.93
2022-09-07T08:15:50.585Z,3.30
2022-09-07T08:16:52.518Z,3.77
2022-09-07T08:17:54.476Z,3.53
2022-09-07T08:18:57.353Z,3.87
2022-09-07T08:19:59.468Z,3.30
2022-09-07T08:21:04.197Z,3.70
2022-09-07T08:22:07.487Z,4.30
2022-09-07T08:23:09.739Z,3.60
2022-09-07T08:24:12.001Z,3.73
2022-09-07T08:25:13.960Z,3.83
2022-09-07T08:26:16.344Z,3.77
2022-09-07T08:27:21.341Z,4.10
2022-09-07T08:28:23.708Z,3.67
2022-09-07T08:29:25.554Z,3.37
2022-09-07T08:30:27.505Z,3.67
2022-09-07T08:31:29.633Z,4.17
2022-09-07T08:32:31.754Z,6.30
2022-09-07T08:33:36.267Z,6.33
2022-09-07T08:34:38.395Z,3.90
2022-09-07T08:35:40.536Z,4.17
2022-09-07T08:36:42.537Z,3.50
2022-09-07T08:37:44.473Z,4.10
2022-09-07T08:38:47.546Z,4.30
2022-09-07T08:39:49.559Z,4.03
2022-09-07T08:40:52.195Z,3.50
2022-09-07T08:41:59.749Z,4.33
2022-09-07T08:43:23.059Z,4.50
2022-09-07T08:44:26.338Z,4.87
2022-09-07T08:45:36.961Z,3.90
2022-09-07T08:46:42.913Z,4.00
2022-09-07T08:47:52.272Z,4.63
2022-09-07T08:48:56.923Z,4.13
2022-09-07T08:50:04.197Z,4.30
2022-09-07T08:51:24.093Z,4.40
2022-09-07T08:52:34.025Z,4.10
2022-09-07T08:53:41.567Z,4.83
2022-09-07T08:54:49.616Z,4.13
2022-09-07T08:55:55.212Z,4.73
2022-09-07T08:58:48.671Z,4.80
2022-09-07T09:00:11.613Z,4.57
2022-09-07T09:01:34.096Z,4.90
2022-09-07T09:02:43.140Z,4.50
2022-09-07T09:05:42.405Z,4.07
2022-09-07T09:07:09.227Z,3.80
2022-09-07T09:08:25.782Z,4.50
2022-09-07T09:10:05.424Z,4.67
2022-09-07T09:11:16.310Z,4.10
2022-09-07T09:12:37.796Z,4.20
2022-09-07T09:14:02.106Z,3.27
2022-09-07T09:15:31.330Z,3.30
2022-09-07T09:16:58.430Z,3.90
2022-09-07T09:18:20.263Z,2.97
2022-09-07T09:19:27.912Z,3.10
2022-09-07T09:20:44.410Z,3.23
2022-09-07T09:21:46.211Z,2.50
2022-09-07T09:22:48.991Z,2.03
2022-09-07T09:23:53.346Z,2.90
2022-09-07T09:25:13.408Z,2.57
2022-09-07T09:26:30.609Z,2.50
2022-09-07T09:27:32.326Z,2.80
2022-09-07T09:28:34.177Z,3.00
2022-09-07T09:29:35.998Z,2.70
2022-09-07T09:30:37.677Z,2.33
2022-09-07T09:31:39.531Z,2.17
2022-09-07T09:32:43.774Z,2.30
2022-09-07T09:34:05.350Z,2.40
2022-09-07T09:35:29.850Z,2.33
2022-09-07T09:36:34.577Z,2.40
2022-09-07T09:37:38.520Z,2.40
2022-09-07T09:38:40.743Z,3.13
2022-09-07T09:39:44.444Z,2.60
2022-09-07T09:40:52.644Z,2.13
2022-09-07T09:41:57.222Z,2.00
2022-09-07T09:43:01.862Z,2.20
2022-09-07T09:44:03.702Z,2.33
2022-09-07T09:45:16.349Z,2.20
2022-09-07T09:46:20.774Z,1.90
2022-09-07T09:47:31.229Z,1.97
2022-09-07T09:48:37.081Z,1.60
2022-09-07T09:49:40.637Z,1.77
2022-09-07T09:52:42.949Z,2.37
2022-09-07T09:53:44.054Z,1.90
2022-09-07T09:54:51.261Z,1.70
2022-09-07T09:55:53.935Z,1.50
2022-09-07T09:56:55.835Z,2.00
2022-09-07T10:04:59.469Z,1.70
2022-09-07T10:06:06.557Z,2.10
2022-09-07T10:07:19.106Z,2.20
2022-09-07T10:08:29.764Z,2.13
2022-09-07T10:09:49.700Z,2.00
2022-09-07T10:11:09.092Z,2.00
2022-09-07T10:12:27.034Z,1.90
2022-09-07T10:13:35.211Z,2.23
2022-09-07T10:14:44.236Z,2.40
2022-09-07T10:15:51.265Z,2.10
2022-09-07T10:16:53.432Z,1.90
2022-09-07T10:17:55.122Z,2.50
2022-09-07T10:18:58.932Z,2.20
2022-09-07T10:20:21.739Z,2.43
2022-09-07T10:21:27.601Z,2.50
2022-09-07T10:22:38.553Z,2.13
2022-09-07T10:23:40.835Z,2.67
2022-09-07T10:24:42.655Z,3.10
2022-09-07T10:25:44.395Z,2.20
2022-09-07T10:26:48.504Z,2.40
2022-09-07T10:28:06.050Z,2.20
2022-09-07T10:29:25.637Z,2.23
2022-09-07T10:30:27.675Z,3.13
2022-09-07T10:31:31.869Z,2.23
2022-09-07T10:32:33.567Z,2.20
2022-09-07T10:34:25.819Z,2.70
2022-09-07T10:35:17.687Z,2.40
2022-09-07T10:36:48.241Z,2.80
2022-09-07T10:38:13.455Z,2.50
2022-09-07T10:39:18.066Z,2.20
2022-09-07T10:40:33.897Z,2.10
2022-09-07T10:41:46.656Z,2.37
2022-09-07T10:43:21.532Z,2.47
2022-09-07T10:44:48.417Z,2.30
2022-09-07T10:47:55.987Z,2.67
2022-09-07T10:49:13.582Z,2.87
2022-09-07T10:50:32.949Z,2.77
2022-09-07T10:52:16.845Z,2.13
2022-09-07T10:53:41.881Z,2.30
2022-09-07T10:55:08.358Z,2.23
2022-09-07T10:56:18.308Z,2.90
2022-09-07T10:57:25.692Z,2.70
2022-09-07T11:00:17.859Z,3.03
2022-09-07T11:01:31.134Z,2.33
2022-09-07T11:02:38.943Z,2.23
2022-09-07T11:03:58.319Z,2.20
2022-09-07T11:05:03.040Z,2.70
2022-09-07T11:06:11.426Z,2.80
2022-09-07T11:08:03.862Z,2.63
2022-09-07T11:09:20.487Z,2.43
2022-09-07T11:10:36.706Z,2.67
2022-09-07T11:12:04.958Z,2.70
2022-09-07T11:13:12.118Z,2.53
2022-09-07T11:14:19.285Z,2.67
2022-09-07T11:15:31.361Z,2.90
2022-09-07T11:16:51.693Z,2.33
2022-09-07T11:18:06.422Z,2.93
2022-09-07T11:20:54.770Z,2.47
2022-09-07T11:22:27.509Z,2.10
2022-09-07T11:23:40.894Z,2.60
2022-09-07T11:26:45.670Z,2.40
2022-09-07T11:27:55.974Z,2.23
2022-09-07T11:30:37.279Z,2.40
2022-09-07T11:31:51.775Z,2.50
2022-09-07T11:33:31.594Z,2.70
2022-09-07T11:35:03.842Z,2.43
2022-09-07T11:36:18.280Z,2.67
2022-09-07T11:37:26.633Z,2.50
2022-09-07T11:38:34.413Z,2.70
2022-09-07T11:39:44.849Z,2.10
2022-09-07T11:41:14.929Z,2.33
2022-09-07T11:43:05.406Z,2.17
2022-09-07T11:44:21.811Z,2.70
2022-09-07T11:45:43.803Z,2.77
2022-09-07T11:46:52.395Z,2.20
2022-09-07T11:48:02.443Z,1.70
2022-09-07T11:49:11.998Z,2.00
2022-09-07T11:50:20.831Z,2.03
2022-09-07T11:51:43.046Z,1.77
2022-09-07T11:52:53.515Z,1.93
2022-09-07T11:54:02.797Z,1.90
2022-09-07T11:55:11.596Z,1.90
2022-09-07T11:56:20.257Z,2.10
2022-09-07T11:57:55.498Z,1.77
2022-09-07T11:59:03.315Z,2.43
2022-09-07T12:00:17.636Z,2.40
2022-09-07T12:01:35.638Z,2.10
2022-09-07T12:03:08.326Z,2.90
2022-09-07T12:04:48.745Z,2.40
2022-09-07T12:06:35.556Z,1.80
2022-09-07T12:07:55.250Z,2.43
2022-09-07T12:09:02.750Z,2.10
2022-09-07T12:10:20.564Z,2.27
2022-09-07T12:11:41.330Z,2.53
2022-09-07T12:12:48.904Z,2.23
2022-09-07T12:14:12.678Z,2.53
2022-09-07T12:15:32.763Z,2.00
2022-09-07T12:16:37.389Z,2.23
2022-09-07T12:18:21.086Z,1.93
2022-09-07T12:19:25.082Z,2.13
2022-09-07T12:20:43.614Z,1.90
2022-09-07T12:21:53.280Z,2.37
2022-09-07T12:23:07.378Z,1.80
2022-09-07T12:24:28.145Z,2.10
2022-09-07T12:25:31.205Z,2.23
2022-09-07T12:26:38.828Z,1.90
2022-09-07T12:27:40.484Z,1.87
2022-09-07T12:28:42.073Z,1.87
2022-09-07T12:29:46.700Z,1.87
2022-09-07T12:31:04.543Z,2.20
2022-09-07T12:33:36.716Z,1.80
2022-09-07T12:34:49.445Z,1.60
2022-09-07T12:35:51.226Z,1.73
2022-09-07T12:36:52.851Z,1.67
2022-09-07T12:37:59.021Z,2.03
2022-09-07T12:39:32.313Z,2.00
2022-09-07T12:40:37.275Z,1.67
2022-09-07T12:41:47.893Z,1.73
2022-09-07T12:42:49.621Z,2.00
2022-09-07T12:43:52.966Z,1.80
2022-09-07T12:45:29.329Z,2.63
2022-09-07T12:46:34.733Z,1.87
2022-09-07T12:47:36.943Z,1.60
2022-09-07T12:49:00.502Z,2.20
2022-09-07T12:50:28.497Z,2.00
2022-09-07T12:53:20.299Z,1.80
2022-09-07T12:54:40.935Z,1.97
2022-09-07T12:56:17.829Z,1.87
2022-09-07T12:57:54.062Z,2.30
2022-09-07T12:59:01.560Z,2.10
2022-09-07T13:00:17.290Z,2.00
2022-09-07T13:01:35.100Z,1.97
2022-09-07T13:02:54.960Z,1.53
2022-09-07T13:04:12.799Z,2.27
2022-09-07T13:05:34.010Z,1.73
2022-09-07T13:07:04.308Z,2.20
2022-09-07T13:08:15.079Z,2.07
2022-09-07T13:10:03.809Z,2.07
2022-09-07T13:11:34.408Z,1.60
2022-09-07T13:12:57.780Z,1.50
2022-09-07T13:14:05.079Z,1.80
2022-09-07T13:15:28.508Z,2.00
2022-09-07T13:17:16.043Z,1.83
2022-09-07T13:17:56.411Z,1.70
2022-09-07T13:18:59.651Z,2.10
2022-09-07T13:20:01.397Z,1.77
2022-09-07T13:21:08.861Z,1.70
2022-09-07T13:22:29.533Z,1.80
2022-09-07T13:23:31.388Z,1.70
2022-09-07T13:24:46.473Z,2.13
2022-09-07T13:25:51.383Z,1.83
2022-09-07T13:27:06.488Z,2.17
2022-09-07T13:28:18.497Z,2.10
2022-09-07T13:29:38.636Z,2.13
2022-09-07T13:31:08.334Z,2.40
2022-09-07T13:32:19.172Z,4.00
2022-09-07T13:33:24.017Z,4.97
2022-09-07T13:34:34.730Z,4.77
2022-09-07T13:35:36.954Z,3.83
2022-09-07T13:36:51.489Z,4.33
2022-09-07T13:37:59.827Z,3.27
2022-09-07T13:39:04.861Z,3.37
2022-09-07T13:40:11.694Z,2.80
2022-09-07T13:41:17.687Z,1.60
2022-09-07T13:42:20.875Z,2.60
2022-09-07T13:43:24.441Z,2.07
2022-09-07T13:44:31.800Z,2.17
2022-09-07T13:45:55.516Z,1.40
2022-09-07T13:47:19.027Z,1.60
2022-09-07T13:48:30.979Z,1.30
2022-09-07T13:49:57.032Z,1.40
2022-09-07T13:51:26.179Z,1.33
2022-09-07T13:52:35.370Z,1.47
2022-09-07T13:53:59.917Z,1.40
2022-09-07T13:55:09.808Z,1.40
2022-09-07T13:56:14.218Z,1.53
2022-09-07T13:57:28.221Z,1.37
2022-09-07T13:58:34.754Z,1.50
2022-09-07T13:59:36.636Z,1.70
2022-09-07T14:00:58.176Z,1.40
2022-09-07T14:02:00.551Z,1.70
2022-09-07T14:03:07.224Z,1.80
2022-09-07T14:04:22.589Z,1.63
2022-09-07T14:05:24.353Z,1.50
2022-09-07T14:06:32.139Z,1.67
2022-09-07T14:07:33.754Z,1.70
2022-09-07T14:08:39.655Z,1.60
2022-09-07T14:09:41.874Z,1.70
2022-09-07T14:10:48.852Z,1.73
2022-09-07T14:11:54.347Z,1.90
2022-09-07T14:13:02.054Z,1.80
2022-09-07T14:14:14.441Z,1.77
2022-09-07T14:15:27.880Z,1.70
2022-09-07T14:16:30.625Z,1.93
2022-09-07T14:17:32.365Z,2.13
2022-09-07T14:18:34.094Z,1.83
2022-09-07T14:19:51.468Z,2.00
2022-09-07T14:20:53.852Z,2.20
2022-09-07T14:22:01.243Z,2.00
2022-09-07T14:23:02.893Z,2.10
2022-09-07T14:24:34.833Z,1.60
2022-09-07T14:26:16.044Z,2.30
2022-09-07T14:26:59.197Z,1.87
2022-09-07T14:28:02.409Z,2.20
2022-09-07T14:29:04.069Z,2.30
2022-09-07T14:30:23.628Z,1.73
2022-09-07T14:31:25.904Z,1.90
2022-09-07T14:32:27.790Z,2.10
2022-09-07T14:33:31.071Z,2.20
2022-09-07T14:34:37.476Z,2.00
2022-09-07T14:35:41.341Z,1.63
2022-09-07T14:36:46.251Z,2.03
2022-09-07T14:37:49.560Z,1.77
2022-09-07T14:39:06.998Z,2.10
2022-09-07T14:40:21.879Z,2.00
2022-09-07T14:41:28.277Z,1.97
2022-09-07T14:42:30.186Z,2.00
2022-09-07T14:43:36.145Z,2.00
2022-09-07T14:44:40.459Z,2.33
2022-09-07T14:45:42.156Z,2.13
2022-09-07T14:46:51.761Z,1.60
2022-09-07T14:47:56.797Z,1.80
2022-09-07T14:49:04.922Z,1.90
2022-09-07T14:50:16.706Z,1.90
2022-09-07T14:51:34.842Z,2.30
2022-09-07T14:53:33.213Z,3.07
2022-09-07T14:54:05.613Z,3.47
2022-09-07T14:55:26.393Z,3.30
2022-09-07T14:56:36.362Z,2.00
2022-09-07T14:57:38.025Z,2.80
2022-09-07T14:58:39.732Z,2.20
2022-09-07T14:59:44.011Z,2.80
2022-09-07T15:01:37.251Z,2.60
2022-09-07T15:02:19.218Z,2.50
2022-09-07T15:03:33.962Z,2.47
2022-09-07T15:04:36.311Z,2.97
2022-09-07T15:05:48.178Z,2.87
2022-09-07T15:07:05.063Z,2.70
2022-09-07T15:08:18.411Z,2.50
2022-09-07T15:09:30.152Z,2.67
2022-09-07T15:11:32.509Z,2.40
2022-09-07T15:12:18.080Z,2.03
2022-09-07T15:13:34.094Z,2.43
2022-09-07T15:14:36.304Z,2.40
2022-09-07T15:15:41.289Z,2.63
2022-09-07T15:16:44.474Z,2.30
2022-09-07T15:17:46.513Z,2.67
2022-09-07T15:19:16.196Z,2.80
2022-09-07T15:20:31.057Z,6.10
2022-09-07T15:21:36.588Z,5.07
2022-09-07T15:22:38.314Z,4.80
2022-09-07T15:23:39.995Z,4.10
2022-09-07T15:24:41.689Z,3.13
2022-09-07T15:25:50.286Z,3.43
2022-09-07T15:27:08.521Z,3.17
2022-09-07T15:29:50.555Z,2.60
2022-09-07T15:31:40.540Z,2.67
2022-09-07T15:32:16.687Z,2.77
2022-09-07T15:33:19.544Z,2.57
2022-09-07T15:34:21.220Z,2.23
2022-09-07T15:35:23.002Z,2.60
2022-09-07T15:36:24.669Z,2.77
2022-09-07T15:39:03.828Z,3.53
2022-09-07T15:40:22.775Z,3.70
2022-09-07T15:41:24.757Z,3.03
2022-09-07T15:43:48.506Z,2.43
2022-09-07T15:44:50.495Z,2.30
2022-09-07T15:45:52.478Z,2.60
2022-09-07T15:48:19.612Z,2.33
2022-09-07T15:49:21.720Z,2.63
2022-09-07T15:50:23.707Z,1.57
2022-09-07T15:52:47.115Z,2.13
2022-09-07T15:55:11.661Z,2.10
2022-09-07T15:56:13.566Z,1.73
2022-09-07T15:58:36.852Z,1.80
2022-09-07T15:59:38.458Z,2.30
2022-09-07T16:00:40.092Z,1.67
2022-09-07T16:01:58.189Z,1.80
2022-09-07T16:03:08.617Z,1.70
2022-09-07T16:04:14.639Z,1.90
2022-09-07T16:05:17.238Z,2.60
2022-09-07T16:06:21.770Z,2.10
2022-09-07T16:08:24.751Z,2.23
2022-09-07T16:08:51.425Z,2.90
2022-09-07T16:09:53.212Z,2.40
2022-09-07T16:10:55.782Z,2.20
2022-09-07T16:13:31.388Z,2.30
2022-09-07T16:14:35.016Z,2.40
2022-09-07T16:15:46.150Z,3.30
2022-09-07T16:18:09.615Z,3.40
2022-09-07T16:19:15.415Z,3.27
2022-09-07T16:20:17.162Z,3.20
2022-09-07T16:21:19.660Z,3.17
2022-09-07T16:23:45.635Z,3.47
2022-09-07T16:24:48.235Z,3.23
2022-09-07T16:25:58.081Z,3.50
2022-09-07T16:27:00.078Z,2.20